sensor_id;sensor_type;location;lat;lon;timestamp;P1;durP1;ratioP1;P2;durP2;ratioP2
51515;SDS011;37603;55.614;37.326;2023-06-10T00:03:59;4.5;;;2.9;;
51515;SDS011;37603;55.614;37.326;2023-06-10T00:09:59;3.7;;;2.6;;
51515;SDS011;37603;55.614;37.326;2023-06-10T00:15:58;5.1;;;2.8;;
51515;SDS011;37603;55.614;37.326;2023-06-10T00:21:57;3.5;;;2.7;;
51515;SDS011;37603;55.614;37.326;2023-06-10T00:27:56;3.9;;;2.5;;
51515;SDS011;37603;55.614;37.326;2023-06-10T00:33:56;2.9;;;2.6;;
51515;SDS011;37603;55.614;37.326;2023-06-10T00:39:55;5.4;;;2.3;;
51515;SDS011;37603;55.614;37.326;2023-06-10T00:45:54;3.9;;;2.2;;
51515;SDS011;37603;55.614;37.326;2023-06-10T00:51:54;2.2;;;2.0;;
51515;SDS011;37603;55.614;37.326;2023-06-10T00:57:53;3.8;;;2.1;;
51515;SDS011;37603;55.614;37.326;2023-06-10T01:03:52;3.0;;;1.9;;
51515;SDS011;37603;55.614;37.326;2023-06-10T01:09:54;6.1;;;2.1;;
51515;SDS011;37603;55.614;37.326;2023-06-10T01:15:51;5.9;;;2.3;;
51515;SDS011;37603;55.614;37.326;2023-06-10T01:21:50;3.7;;;2.6;;
51515;SDS011;37603;55.614;37.326;2023-06-10T01:27:49;4.8;;;2.8;;
51515;SDS011;37603;55.614;37.326;2023-06-10T01:33:49;5.0;;;2.5;;
51515;SDS011;37603;55.614;37.326;2023-06-10T01:39:48;3.0;;;2.3;;
51515;SDS011;37603;55.614;37.326;2023-06-10T01:45:47;4.0;;;2.3;;
51515;SDS011;37603;55.614;37.326;2023-06-10T01:51:46;4.2;;;2.1;;
51515;SDS011;37603;55.614;37.326;2023-06-10T01:57:45;4.0;;;1.9;;
51515;SDS011;37603;55.614;37.326;2023-06-10T02:03:45;4.8;;;2.0;;
51515;SDS011;37603;55.614;37.326;2023-06-10T02:09:44;3.8;;;1.8;;
51515;SDS011;37603;55.614;37.326;2023-06-10T02:15:43;3.2;;;2.0;;
51515;SDS011;37603;55.614;37.326;2023-06-10T02:21:42;4.6;;;1.8;;
51515;SDS011;37603;55.614;37.326;2023-06-10T02:27:42;4.1;;;1.8;;
51515;SDS011;37603;55.614;37.326;2023-06-10T02:33:41;4.6;;;2.3;;
51515;SDS011;37603;55.614;37.326;2023-06-10T02:39:40;5.0;;;1.9;;
51515;SDS011;37603;55.614;37.326;2023-06-10T02:45:39;3.0;;;2.0;;
51515;SDS011;37603;55.614;37.326;2023-06-10T02:51:38;3.9;;;2.3;;
51515;SDS011;37603;55.614;37.326;2023-06-10T02:57:38;3.7;;;2.3;;
51515;SDS011;37603;55.614;37.326;2023-06-10T03:03:37;4.4;;;2.2;;
51515;SDS011;37603;55.614;37.326;2023-06-10T03:09:36;3.9;;;2.6;;
51515;SDS011;37603;55.614;37.326;2023-06-10T03:15:35;3.6;;;2.4;;
51515;SDS011;37603;55.614;37.326;2023-06-10T03:21:34;3.8;;;2.6;;
51515;SDS011;37603;55.614;37.326;2023-06-10T03:27:34;7.0;;;2.7;;
51515;SDS011;37603;55.614;37.326;2023-06-10T03:33:33;4.6;;;2.7;;
51515;SDS011;37603;55.614;37.326;2023-06-10T03:39:32;5.4;;;2.5;;
51515;SDS011;37603;55.614;37.326;2023-06-10T03:45:31;4.1;;;2.6;;
51515;SDS011;37603;55.614;37.326;2023-06-10T03:51:31;5.0;;;2.5;;
51515;SDS011;37603;55.614;37.326;2023-06-10T03:57:30;5.6;;;2.7;;
51515;SDS011;37603;55.614;37.326;2023-06-10T04:03:29;3.7;;;2.3;;
51515;SDS011;37603;55.614;37.326;2023-06-10T04:09:28;5.4;;;2.4;;
51515;SDS011;37603;55.614;37.326;2023-06-10T04:15:28;5.3;;;2.6;;
51515;SDS011;37603;55.614;37.326;2023-06-10T04:21:27;6.4;;;2.5;;
51515;SDS011;37603;55.614;37.326;2023-06-10T04:27:26;4.1;;;2.2;;
51515;SDS011;37603;55.614;37.326;2023-06-10T04:33:25;4.9;;;2.3;;
51515;SDS011;37603;55.614;37.326;2023-06-10T04:39:25;3.7;;;2.4;;
51515;SDS011;37603;55.614;37.326;2023-06-10T04:45:24;4.0;;;2.3;;
51515;SDS011;37603;55.614;37.326;2023-06-10T04:51:23;3.0;;;1.9;;
51515;SDS011;37603;55.614;37.326;2023-06-10T05:03:22;2.8;;;1.7;;
51515;SDS011;37603;55.614;37.326;2023-06-10T05:09:21;2.7;;;1.7;;
51515;SDS011;37603;55.614;37.326;2023-06-10T05:21:20;2.5;;;1.5;;
51515;SDS011;37603;55.614;37.326;2023-06-10T05:27:20;6.0;;;1.6;;
51515;SDS011;37603;55.614;37.326;2023-06-10T05:33:19;2.2;;;1.5;;
51515;SDS011;37603;55.614;37.326;2023-06-10T05:39:19;3.2;;;1.5;;
51515;SDS011;37603;55.614;37.326;2023-06-10T05:45:18;4.0;;;1.5;;
51515;SDS011;37603;55.614;37.326;2023-06-10T05:51:18;5.0;;;1.7;;
51515;SDS011;37603;55.614;37.326;2023-06-10T05:57:17;2.4;;;1.6;;
51515;SDS011;37603;55.614;37.326;2023-06-10T06:03:17;4.9;;;1.7;;
51515;SDS011;37603;55.614;37.326;2023-06-10T06:09:16;4.0;;;1.6;;
51515;SDS011;37603;55.614;37.326;2023-06-10T06:15:16;5.4;;;1.6;;
51515;SDS011;37603;55.614;37.326;2023-06-10T06:21:15;2.9;;;1.5;;
51515;SDS011;37603;55.614;37.326;2023-06-10T06:27:15;3.3;;;1.4;;
51515;SDS011;37603;55.614;37.326;2023-06-10T06:33:14;2.6;;;1.6;;
51515;SDS011;37603;55.614;37.326;2023-06-10T06:39:14;4.2;;;1.6;;
51515;SDS011;37603;55.614;37.326;2023-06-10T06:45:13;4.0;;;1.6;;
51515;SDS011;37603;55.614;37.326;2023-06-10T06:51:13;3.0;;;1.6;;
51515;SDS011;37603;55.614;37.326;2023-06-10T06:57:12;2.6;;;1.5;;
51515;SDS011;37603;55.614;37.326;2023-06-10T07:03:12;2.7;;;1.5;;
51515;SDS011;37603;55.614;37.326;2023-06-10T07:15:11;4.3;;;1.6;;
51515;SDS011;37603;55.614;37.326;2023-06-10T07:21:10;3.3;;;2.0;;
51515;SDS011;37603;55.614;37.326;2023-06-10T07:27:10;4.4;;;1.8;;
51515;SDS011;37603;55.614;37.326;2023-06-10T07:33:09;4.1;;;1.3;;
51515;SDS011;37603;55.614;37.326;2023-06-10T07:39:09;5.0;;;1.4;;
51515;SDS011;37603;55.614;37.326;2023-06-10T07:45:08;3.7;;;1.6;;
51515;SDS011;37603;55.614;37.326;2023-06-10T07:51:08;4.5;;;1.1;;
51515;SDS011;37603;55.614;37.326;2023-06-10T07:57:07;3.0;;;1.3;;
51515;SDS011;37603;55.614;37.326;2023-06-10T08:03:07;5.2;;;1.4;;
51515;SDS011;37603;55.614;37.326;2023-06-10T08:09:07;1.9;;;1.1;;
51515;SDS011;37603;55.614;37.326;2023-06-10T08:15:07;4.9;;;1.1;;
51515;SDS011;37603;55.614;37.326;2023-06-10T08:21:06;2.9;;;1.4;;
51515;SDS011;37603;55.614;37.326;2023-06-10T08:27:05;2.8;;;1.0;;
51515;SDS011;37603;55.614;37.326;2023-06-10T08:33:05;2.4;;;1.0;;
51515;SDS011;37603;55.614;37.326;2023-06-10T08:39:04;2.6;;;1.6;;
51515;SDS011;37603;55.614;37.326;2023-06-10T08:45:05;3.5;;;1.2;;
51515;SDS011;37603;55.614;37.326;2023-06-10T08:51:04;2.1;;;1.0;;
51515;SDS011;37603;55.614;37.326;2023-06-10T08:57:03;3.3;;;1.1;;
51515;SDS011;37603;55.614;37.326;2023-06-10T09:03:04;4.0;;;0.9;;
51515;SDS011;37603;55.614;37.326;2023-06-10T09:09:02;3.9;;;2.3;;
51515;SDS011;37603;55.614;37.326;2023-06-10T09:15:02;2.3;;;0.8;;
51515;SDS011;37603;55.614;37.326;2023-06-10T09:21:01;2.0;;;1.1;;
51515;SDS011;37603;55.614;37.326;2023-06-10T09:27:02;2.8;;;0.9;;
51515;SDS011;37603;55.614;37.326;2023-06-10T09:33:01;2.9;;;1.3;;
51515;SDS011;37603;55.614;37.326;2023-06-10T09:39:00;1.8;;;1.0;;
51515;SDS011;37603;55.614;37.326;2023-06-10T09:45:00;3.2;;;0.9;;
51515;SDS011;37603;55.614;37.326;2023-06-10T09:50:59;2.3;;;0.8;;
51515;SDS011;37603;55.614;37.326;2023-06-10T09:56:59;2.2;;;0.7;;
51515;SDS011;37603;55.614;37.326;2023-06-10T10:02:58;3.9;;;1.0;;
51515;SDS011;37603;55.614;37.326;2023-06-10T10:08:58;2.9;;;1.0;;
51515;SDS011;37603;55.614;37.326;2023-06-10T10:14:57;4.2;;;0.9;;
51515;SDS011;37603;55.614;37.326;2023-06-10T10:20:57;2.7;;;0.9;;
51515;SDS011;37603;55.614;37.326;2023-06-10T10:26:57;2.4;;;0.8;;
51515;SDS011;37603;55.614;37.326;2023-06-10T10:32:57;3.4;;;0.7;;
51515;SDS011;37603;55.614;37.326;2023-06-10T10:38:55;2.7;;;0.7;;
51515;SDS011;37603;55.614;37.326;2023-06-10T10:44:55;2.0;;;0.9;;
51515;SDS011;37603;55.614;37.326;2023-06-10T11:02:53;2.2;;;1.0;;
51515;SDS011;37603;55.614;37.326;2023-06-10T11:08:53;3.1;;;1.1;;
51515;SDS011;37603;55.614;37.326;2023-06-10T11:14:54;4.9;;;0.8;;
51515;SDS011;37603;55.614;37.326;2023-06-10T11:20:53;4.3;;;0.9;;
51515;SDS011;37603;55.614;37.326;2023-06-10T11:26:52;1.9;;;0.7;;
51515;SDS011;37603;55.614;37.326;2023-06-10T11:32:51;4.1;;;0.8;;
51515;SDS011;37603;55.614;37.326;2023-06-10T11:38:52;2.5;;;0.8;;
51515;SDS011;37603;55.614;37.326;2023-06-10T11:44:50;1.3;;;0.8;;
51515;SDS011;37603;55.614;37.326;2023-06-10T11:50:50;2.1;;;0.8;;
51515;SDS011;37603;55.614;37.326;2023-06-10T11:56:49;3.5;;;1.5;;
51515;SDS011;37603;55.614;37.326;2023-06-10T12:02:54;3.8;;;2.2;;
51515;SDS011;37603;55.614;37.326;2023-06-10T12:08:48;3.2;;;1.2;;
51515;SDS011;37603;55.614;37.326;2023-06-10T12:14:51;5.2;;;1.3;;
51515;SDS011;37603;55.614;37.326;2023-06-10T12:20:47;3.8;;;0.9;;
51515;SDS011;37603;55.614;37.326;2023-06-10T12:26:47;3.0;;;1.3;;
51515;SDS011;37603;55.614;37.326;2023-06-10T12:32:46;2.1;;;0.9;;
51515;SDS011;37603;55.614;37.326;2023-06-10T12:38:46;2.5;;;0.8;;
51515;SDS011;37603;55.614;37.326;2023-06-10T12:44:45;3.5;;;1.7;;
51515;SDS011;37603;55.614;37.326;2023-06-10T12:56:44;2.1;;;0.9;;
51515;SDS011;37603;55.614;37.326;2023-06-10T13:02:44;2.7;;;1.4;;
51515;SDS011;37603;55.614;37.326;2023-06-10T13:08:43;4.5;;;1.0;;
51515;SDS011;37603;55.614;37.326;2023-06-10T13:14:43;2.9;;;1.2;;
51515;SDS011;37603;55.614;37.326;2023-06-10T13:20:42;2.8;;;1.1;;
51515;SDS011;37603;55.614;37.326;2023-06-10T13:26:42;4.0;;;1.0;;
51515;SDS011;37603;55.614;37.326;2023-06-10T13:32:41;3.0;;;0.9;;
51515;SDS011;37603;55.614;37.326;2023-06-10T13:38:41;2.8;;;0.9;;
51515;SDS011;37603;55.614;37.326;2023-06-10T13:44:40;1.7;;;0.9;;
51515;SDS011;37603;55.614;37.326;2023-06-10T13:50:45;1.9;;;0.9;;
51515;SDS011;37603;55.614;37.326;2023-06-10T13:56:39;2.4;;;1.0;;
51515;SDS011;37603;55.614;37.326;2023-06-10T14:02:39;2.8;;;1.0;;
51515;SDS011;37603;55.614;37.326;2023-06-10T14:08:38;3.9;;;1.1;;
51515;SDS011;37603;55.614;37.326;2023-06-10T14:14:38;1.5;;;1.0;;
51515;SDS011;37603;55.614;37.326;2023-06-10T14:20:37;6.5;;;1.7;;
51515;SDS011;37603;55.614;37.326;2023-06-10T14:26:37;4.2;;;1.4;;
51515;SDS011;37603;55.614;37.326;2023-06-10T14:32:36;2.2;;;1.2;;
51515;SDS011;37603;55.614;37.326;2023-06-10T14:38:36;5.7;;;1.4;;
51515;SDS011;37603;55.614;37.326;2023-06-10T14:44:35;2.4;;;1.4;;
51515;SDS011;37603;55.614;37.326;2023-06-10T14:50:35;4.1;;;1.1;;
51515;SDS011;37603;55.614;37.326;2023-06-10T14:56:34;2.4;;;0.7;;
51515;SDS011;37603;55.614;37.326;2023-06-10T15:02:33;3.0;;;1.0;;
51515;SDS011;37603;55.614;37.326;2023-06-10T15:08:33;8.0;;;1.6;;
51515;SDS011;37603;55.614;37.326;2023-06-10T15:14:32;3.2;;;1.2;;
51515;SDS011;37603;55.614;37.326;2023-06-10T15:20:32;2.9;;;1.1;;
51515;SDS011;37603;55.614;37.326;2023-06-10T15:26:31;6.0;;;1.2;;
51515;SDS011;37603;55.614;37.326;2023-06-10T15:32:31;3.8;;;1.5;;
51515;SDS011;37603;55.614;37.326;2023-06-10T15:38:30;4.4;;;1.1;;
51515;SDS011;37603;55.614;37.326;2023-06-10T15:44:30;4.1;;;1.0;;
51515;SDS011;37603;55.614;37.326;2023-06-10T15:50:29;2.1;;;1.0;;
51515;SDS011;37603;55.614;37.326;2023-06-10T15:56:28;4.8;;;1.5;;
51515;SDS011;37603;55.614;37.326;2023-06-10T16:02:28;3.6;;;1.4;;
51515;SDS011;37603;55.614;37.326;2023-06-10T16:08:27;3.5;;;1.2;;
51515;SDS011;37603;55.614;37.326;2023-06-10T16:14:27;3.0;;;1.6;;
51515;SDS011;37603;55.614;37.326;2023-06-10T16:20:26;3.4;;;1.4;;
51515;SDS011;37603;55.614;37.326;2023-06-10T16:26:26;2.9;;;1.2;;
51515;SDS011;37603;55.614;37.326;2023-06-10T16:32:25;3.2;;;1.5;;
51515;SDS011;37603;55.614;37.326;2023-06-10T16:38:25;4.1;;;1.6;;
51515;SDS011;37603;55.614;37.326;2023-06-10T16:44:24;2.7;;;1.1;;
51515;SDS011;37603;55.614;37.326;2023-06-10T16:50:23;2.4;;;1.1;;
51515;SDS011;37603;55.614;37.326;2023-06-10T16:56:23;4.2;;;1.8;;
51515;SDS011;37603;55.614;37.326;2023-06-10T17:02:22;3.5;;;1.3;;
51515;SDS011;37603;55.614;37.326;2023-06-10T17:08:21;2.4;;;1.2;;
51515;SDS011;37603;55.614;37.326;2023-06-10T17:14:21;3.0;;;1.3;;
51515;SDS011;37603;55.614;37.326;2023-06-10T17:20:20;2.8;;;1.7;;
51515;SDS011;37603;55.614;37.326;2023-06-10T17:26:20;3.8;;;1.2;;
51515;SDS011;37603;55.614;37.326;2023-06-10T17:32:19;3.1;;;1.0;;
51515;SDS011;37603;55.614;37.326;2023-06-10T17:38:18;2.4;;;0.9;;
51515;SDS011;37603;55.614;37.326;2023-06-10T17:44:19;3.6;;;1.1;;
51515;SDS011;37603;55.614;37.326;2023-06-10T17:50:17;2.3;;;0.8;;
51515;SDS011;37603;55.614;37.326;2023-06-10T17:56:16;3.8;;;1.6;;
51515;SDS011;37603;55.614;37.326;2023-06-10T18:02:16;3.2;;;1.8;;
51515;SDS011;37603;55.614;37.326;2023-06-10T18:08:15;4.2;;;2.6;;
51515;SDS011;37603;55.614;37.326;2023-06-10T18:14:14;2.8;;;1.2;;
51515;SDS011;37603;55.614;37.326;2023-06-10T18:20:14;2.6;;;1.4;;
51515;SDS011;37603;55.614;37.326;2023-06-10T18:26:13;2.3;;;1.1;;
51515;SDS011;37603;55.614;37.326;2023-06-10T18:32:12;2.4;;;1.1;;
51515;SDS011;37603;55.614;37.326;2023-06-10T18:38:12;4.2;;;1.2;;
51515;SDS011;37603;55.614;37.326;2023-06-10T18:44:11;2.7;;;1.5;;
51515;SDS011;37603;55.614;37.326;2023-06-10T18:50:10;2.4;;;1.3;;
51515;SDS011;37603;55.614;37.326;2023-06-10T18:56:09;3.8;;;1.7;;
51515;SDS011;37603;55.614;37.326;2023-06-10T19:02:09;3.2;;;1.2;;
51515;SDS011;37603;55.614;37.326;2023-06-10T19:08:08;5.5;;;1.4;;
51515;SDS011;37603;55.614;37.326;2023-06-10T19:14:07;2.9;;;1.6;;
51515;SDS011;37603;55.614;37.326;2023-06-10T19:26:06;3.9;;;1.7;;
51515;SDS011;37603;55.614;37.326;2023-06-10T19:32:05;2.3;;;1.2;;
51515;SDS011;37603;55.614;37.326;2023-06-10T19:38:04;5.4;;;1.6;;
51515;SDS011;37603;55.614;37.326;2023-06-10T19:44:03;3.3;;;1.6;;
51515;SDS011;37603;55.614;37.326;2023-06-10T19:50:03;4.2;;;2.2;;
51515;SDS011;37603;55.614;37.326;2023-06-10T19:56:02;2.6;;;1.8;;
51515;SDS011;37603;55.614;37.326;2023-06-10T20:02:01;4.4;;;1.7;;
51515;SDS011;37603;55.614;37.326;2023-06-10T20:08:00;3.6;;;1.9;;
51515;SDS011;37603;55.614;37.326;2023-06-10T20:13:59;2.8;;;1.8;;
51515;SDS011;37603;55.614;37.326;2023-06-10T20:19:58;3.5;;;1.8;;
51515;SDS011;37603;55.614;37.326;2023-06-10T20:25:58;3.8;;;1.9;;
51515;SDS011;37603;55.614;37.326;2023-06-10T20:31:57;3.1;;;1.9;;
51515;SDS011;37603;55.614;37.326;2023-06-10T20:37:56;3.2;;;1.9;;
51515;SDS011;37603;55.614;37.326;2023-06-10T20:43:55;3.5;;;2.0;;
51515;SDS011;37603;55.614;37.326;2023-06-10T20:49:55;2.4;;;2.0;;
51515;SDS011;37603;55.614;37.326;2023-06-10T20:55:54;5.0;;;1.9;;
51515;SDS011;37603;55.614;37.326;2023-06-10T21:07:52;4.9;;;2.1;;
51515;SDS011;37603;55.614;37.326;2023-06-10T21:13:51;4.3;;;2.3;;
51515;SDS011;37603;55.614;37.326;2023-06-10T21:19:51;3.0;;;1.9;;
51515;SDS011;37603;55.614;37.326;2023-06-10T21:25:50;3.4;;;2.0;;
51515;SDS011;37603;55.614;37.326;2023-06-10T21:37:48;4.5;;;2.4;;
51515;SDS011;37603;55.614;37.326;2023-06-10T21:43:47;5.4;;;2.1;;
51515;SDS011;37603;55.614;37.326;2023-06-10T21:49:47;4.7;;;2.2;;
51515;SDS011;37603;55.614;37.326;2023-06-10T21:55:46;5.8;;;2.1;;
51515;SDS011;37603;55.614;37.326;2023-06-10T22:01:45;3.7;;;2.0;;
51515;SDS011;37603;55.614;37.326;2023-06-10T22:07:44;5.0;;;2.4;;
51515;SDS011;37603;55.614;37.326;2023-06-10T22:13:43;3.3;;;2.4;;
51515;SDS011;37603;55.614;37.326;2023-06-10T22:19:42;2.8;;;2.1;;
51515;SDS011;37603;55.614;37.326;2023-06-10T22:25:42;4.5;;;2.3;;
51515;SDS011;37603;55.614;37.326;2023-06-10T22:31:41;4.9;;;2.3;;
51515;SDS011;37603;55.614;37.326;2023-06-10T22:37:40;5.8;;;2.4;;
51515;SDS011;37603;55.614;37.326;2023-06-10T22:43:39;3.9;;;2.4;;
51515;SDS011;37603;55.614;37.326;2023-06-10T22:49:38;4.2;;;2.6;;
51515;SDS011;37603;55.614;37.326;2023-06-10T22:55:37;6.0;;;2.8;;
51515;SDS011;37603;55.614;37.326;2023-06-10T23:01:37;4.6;;;2.8;;
51515;SDS011;37603;55.614;37.326;2023-06-10T23:07:36;4.2;;;2.6;;
51515;SDS011;37603;55.614;37.326;2023-06-10T23:13:35;4.7;;;2.6;;
51515;SDS011;37603;55.614;37.326;2023-06-10T23:19:34;4.3;;;2.6;;
51515;SDS011;37603;55.614;37.326;2023-06-10T23:25:33;3.2;;;2.4;;
51515;SDS011;37603;55.614;37.326;2023-06-10T23:31:32;4.9;;;2.3;;
51515;SDS011;37603;55.614;37.326;2023-06-10T23:37:31;4.6;;;2.7;;
51515;SDS011;37603;55.614;37.326;2023-06-10T23:43:31;4.2;;;2.5;;
51515;SDS011;37603;55.614;37.326;2023-06-10T23:55:29;5.6;;;2.7;;
